Time;durP1;ratioP1;P1;durP2;ratioP2;P2;SDS_P1;SDS_P2;PMS_P1;PMS_P2;Temp;Humidity;BMP_temperature;BMP_pressure;BME280_temperature;BME280_humidity;BME280_pressure;Samples;Min_cycle;Max_cycle;Signal;HPM_P1;HPM_P2
2023/09/17 00:00:32;;;;;;;2.23;2.03;;;;;;;;;;5077962;28;20228;-70
2023/09/17 00:03:00;;;;;;;8.43;2.63;;;;;;;;;;5077931;28;20586;-71
2023/09/17 00:05:28;;;;;;;3.67;1.73;;;;;;;;;;5077657;28;20210;-70
2023/09/17 00:07:56;;;;;;;3.40;2.33;;;;;;;;;;5078031;28;20203;-70
2023/09/17 00:10:24;;;;;;;3.03;2.27;;;;;;;;;;5078045;28;20230;-70
2023/09/17 00:12:55;;;;;;;3.33;2.00;;;;;;;;;;5077827;28;20662;-70
2023/09/17 00:15:25;;;;;;;2.63;2.13;;;;;;;;;;5077911;28;20289;-70
2023/09/17 00:17:53;;;;;;;3.17;2.03;;;;;;;;;;5077747;28;20198;-71
2023/09/17 00:20:22;;;;;;;4.17;2.07;;;;;;;;;;5077328;28;20226;-69
2023/09/17 00:22:50;;;;;;;4.50;2.40;;;;;;;;;;5078013;28;20242;-69
2023/09/17 00:25:18;;;;;;;4.93;2.40;;;;;;;;;;5077730;28;20214;-70
2023/09/17 00:27:46;;;;;;;3.33;2.00;;;;;;;;;;5077817;28;20213;-69
2023/09/17 00:30:15;;;;;;;4.20;2.17;;;;;;;;;;5077756;28;20233;-69
2023/09/17 00:32:44;;;;;;;2.07;1.80;;;;;;;;;;5077624;28;20681;-70
2023/09/17 00:35:12;;;;;;;5.17;2.40;;;;;;;;;;5077416;28;20588;-71
2023/09/17 00:37:41;;;;;;;3.30;2.07;;;;;;;;;;5077890;28;20220;-69
2023/09/17 00:40:11;;;;;;;5.43;2.10;;;;;;;;;;5081335;28;20225;-71
2023/09/17 00:42:40;;;;;;;5.70;2.20;;;;;;;;;;5081891;28;20262;-69
2023/09/17 00:45:09;;;;;;;3.83;2.23;;;;;;;;;;5081869;28;20213;-69
2023/09/17 00:47:38;;;;;;;2.73;2.50;;;;;;;;;;5081866;28;20213;-70
2023/09/17 00:50:08;;;;;;;4.27;2.60;;;;;;;;;;5081535;28;20230;-69
2023/09/17 00:52:36;;;;;;;6.30;2.90;;;;;;;;;;5081569;28;20198;-69
2023/09/17 00:55:05;;;;;;;4.43;2.30;;;;;;;;;;5081323;28;20574;-71
2023/09/17 00:57:33;;;;;;;4.20;2.17;;;;;;;;;;5081219;28;20239;-70
2023/09/17 01:00:08;;;;;;;2.57;2.10;;;;;;;;;;5081648;28;20226;-70
2023/09/17 01:02:39;;;;;;;3.80;2.20;;;;;;;;;;5081183;28;20286;-71
2023/09/17 01:05:08;;;;;;;3.63;2.33;;;;;;;;;;5081373;28;20202;-70
2023/09/17 01:07:36;;;;;;;2.50;2.23;;;;;;;;;;5081149;28;20210;-70
2023/09/17 01:10:05;;;;;;;3.90;1.70;;;;;;;;;;5081271;28;20236;-70
2023/09/17 01:12:33;;;;;;;3.43;2.30;;;;;;;;;;5081087;28;20219;-70
2023/09/17 01:15:03;;;;;;;4.03;2.20;;;;;;;;;;5081357;28;20210;-70
2023/09/17 01:17:31;;;;;;;5.03;2.50;;;;;;;;;;5080754;28;20201;-70
2023/09/17 01:20:07;;;;;;;6.20;2.27;;;;;;;;;;5080934;28;20293;-71
2023/09/17 01:22:39;;;;;;;3.50;2.07;;;;;;;;;;5081229;28;20256;-70
2023/09/17 01:25:12;;;;;;;3.23;2.37;;;;;;;;;;5080786;28;20577;-69
2023/09/17 01:27:45;;;;;;;5.00;2.10;;;;;;;;;;5081134;28;20239;-70
2023/09/17 01:30:15;;;;;;;2.90;2.33;;;;;;;;;;5080912;28;20226;-69
2023/09/17 01:32:44;;;;;;;4.07;2.00;;;;;;;;;;5081043;28;20204;-69
2023/09/17 01:35:13;;;;;;;6.10;3.10;;;;;;;;;;5080651;28;20232;-70
2023/09/17 01:37:44;;;;;;;3.63;2.17;;;;;;;;;;5080689;28;20665;-69
2023/09/17 01:40:12;;;;;;;2.93;2.40;;;;;;;;;;5080311;28;20219;-69
2023/09/17 01:42:43;;;;;;;3.97;2.37;;;;;;;;;;5080558;28;20289;-69
2023/09/17 01:45:13;;;;;;;3.17;2.37;;;;;;;;;;5080739;28;20217;-69
2023/09/17 01:47:42;;;;;;;2.60;2.23;;;;;;;;;;5080570;28;20210;-69
2023/09/17 01:50:11;;;;;;;5.63;2.27;;;;;;;;;;5080026;28;20290;-70
2023/09/17 01:52:39;;;;;;;4.50;2.40;;;;;;;;;;5080627;28;20208;-69
2023/09/17 01:55:10;;;;;;;7.07;2.60;;;;;;;;;;5080236;28;20207;-71
2023/09/17 01:57:39;;;;;;;2.47;2.27;;;;;;;;;;5080253;28;20212;-70
2023/09/17 02:00:14;;;;;;;2.77;2.30;;;;;;;;;;5080161;28;20229;-70
2023/09/17 02:02:43;;;;;;;3.10;1.97;;;;;;;;;;5080340;28;20235;-70
2023/09/17 02:05:11;;;;;;;5.60;2.63;;;;;;;;;;5079839;28;20267;-69
2023/09/17 02:07:39;;;;;;;4.90;2.67;;;;;;;;;;5080125;28;20201;-69
2023/09/17 02:10:07;;;;;;;3.80;2.20;;;;;;;;;;5080203;28;20237;-71
2023/09/17 02:12:35;;;;;;;4.57;2.50;;;;;;;;;;5079955;28;20203;-69
2023/09/17 02:15:04;;;;;;;6.47;2.70;;;;;;;;;;5080066;28;20206;-70
2023/09/17 02:17:33;;;;;;;4.13;2.37;;;;;;;;;;5080082;28;20213;-70
2023/09/17 02:20:02;;;;;;;5.87;2.87;;;;;;;;;;5079829;28;20230;-71
2023/09/17 02:22:30;;;;;;;6.53;2.97;;;;;;;;;;5080065;28;20230;-70
2023/09/17 02:24:58;;;;;;;4.40;3.43;;;;;;;;;;5079709;28;20215;-70
2023/09/17 02:27:26;;;;;;;5.20;2.80;;;;;;;;;;5079955;28;20214;-71
2023/09/17 02:29:54;;;;;;;3.03;2.40;;;;;;;;;;5079853;28;20207;-70
2023/09/17 02:32:22;;;;;;;6.03;2.93;;;;;;;;;;5079562;28;20207;-70
2023/09/17 02:34:51;;;;;;;4.77;2.33;;;;;;;;;;5079668;28;20207;-71
2023/09/17 02:37:20;;;;;;;5.27;2.93;;;;;;;;;;5079759;28;20208;-71
2023/09/17 02:39:48;;;;;;;2.60;2.30;;;;;;;;;;5079192;28;20670;-70
2023/09/17 02:42:16;;;;;;;3.97;2.60;;;;;;;;;;5066277;28;20586;-71
2023/09/17 02:44:44;;;;;;;4.37;2.57;;;;;;;;;;5079540;28;20213;-71
2023/09/17 02:47:12;;;;;;;4.83;2.70;;;;;;;;;;5079494;28;20577;-71
2023/09/17 02:49:40;;;;;;;5.17;2.83;;;;;;;;;;5078898;28;20230;-71
2023/09/17 02:52:10;;;;;;;4.60;2.97;;;;;;;;;;5079542;28;20205;-71
2023/09/17 02:54:38;;;;;;;5.80;2.83;;;;;;;;;;5078983;28;20204;-71
2023/09/17 02:57:07;;;;;;;6.30;2.60;;;;;;;;;;5079132;28;20254;-71
2023/09/17 02:59:35;;;;;;;6.13;3.10;;;;;;;;;;5078977;28;20216;-71
2023/09/17 03:02:04;;;;;;;5.07;2.77;;;;;;;;;;5078506;28;20203;-71
2023/09/17 03:04:33;;;;;;;4.90;2.93;;;;;;;;;;5078737;28;20677;-71
2023/09/17 03:07:04;;;;;;;4.83;2.63;;;;;;;;;;5079299;28;20298;-71
2023/09/17 03:09:34;;;;;;;7.93;2.90;;;;;;;;;;5078866;28;20569;-71
2023/09/17 03:12:01;;;;;;;6.77;2.97;;;;;;;;;;5079131;28;20226;-71
2023/09/17 03:14:29;;;;;;;5.23;2.53;;;;;;;;;;5078756;28;20204;-71
2023/09/17 03:16:57;;;;;;;3.40;2.87;;;;;;;;;;5079013;28;20218;-70
2023/09/17 03:19:26;;;;;;;3.17;2.87;;;;;;;;;;5078778;28;20211;-70
2023/09/17 03:21:55;;;;;;;5.60;2.70;;;;;;;;;;5078580;28;20631;-69
2023/09/17 03:24:22;;;;;;;6.07;3.00;;;;;;;;;;5078419;28;20693;-70
2023/09/17 03:26:52;;;;;;;3.93;2.77;;;;;;;;;;5078762;28;20209;-70
2023/09/17 03:29:22;;;;;;;5.93;3.03;;;;;;;;;;5078609;28;20214;-69
2023/09/17 03:31:50;;;;;;;3.40;3.10;;;;;;;;;;5078385;28;20229;-71
2023/09/17 03:34:19;;;;;;;5.37;3.10;;;;;;;;;;5078405;28;20202;-70
2023/09/17 03:36:47;;;;;;;5.10;3.13;;;;;;;;;;5078460;28;20331;-70
2023/09/17 03:39:15;;;;;;;3.87;2.93;;;;;;;;;;5078249;28;20203;-71
2023/09/17 03:41:43;;;;;;;6.37;3.30;;;;;;;;;;5078347;28;20221;-69
2023/09/17 03:44:14;;;;;;;11.23;3.10;;;;;;;;;;5078587;28;20241;-69
2023/09/17 03:46:42;;;;;;;3.83;3.10;;;;;;;;;;5078185;28;20569;-69
2023/09/17 03:49:10;;;;;;;5.83;2.80;;;;;;;;;;5078184;28;20576;-69
2023/09/17 03:51:38;;;;;;;8.57;3.20;;;;;;;;;;5078025;28;20238;-71
2023/09/17 03:54:06;;;;;;;4.60;3.10;;;;;;;;;;5078281;28;20207;-70
2023/09/17 03:56:35;;;;;;;3.20;2.67;;;;;;;;;;5077985;28;20235;-69
2023/09/17 03:59:03;;;;;;;4.93;3.37;;;;;;;;;;5078191;28;20292;-69
2023/09/17 04:01:34;;;;;;;6.13;3.20;;;;;;;;;;5077922;28;20228;-69
2023/09/17 04:04:02;;;;;;;3.93;2.87;;;;;;;;;;5077906;28;20792;-69
2023/09/17 04:06:30;;;;;;;4.97;3.20;;;;;;;;;;5077735;28;20202;-69
2023/09/17 04:08:58;;;;;;;5.23;2.90;;;;;;;;;;5077987;28;20213;-70
2023/09/17 04:11:28;;;;;;;5.47;3.07;;;;;;;;;;5077862;28;20227;-70
2023/09/17 04:13:56;;;;;;;9.27;2.90;;;;;;;;;;5076992;28;20205;-70
2023/09/17 04:16:24;;;;;;;4.30;3.33;;;;;;;;;;5077810;28;20619;-69
2023/09/17 04:18:54;;;;;;;3.43;2.80;;;;;;;;;;5077609;28;20203;-70
2023/09/17 04:21:22;;;;;;;7.83;3.23;;;;;;;;;;5077525;28;20249;-69
2023/09/17 04:23:50;;;;;;;6.00;3.37;;;;;;;;;;5077446;28;20229;-70
2023/09/17 04:26:24;;;;;;;5.60;3.23;;;;;;;;;;5077742;28;20719;-70
2023/09/17 04:28:53;;;;;;;7.50;3.23;;;;;;;;;;5077930;28;20257;-70
2023/09/17 04:31:21;;;;;;;8.57;3.33;;;;;;;;;;5077842;28;20263;-70
2023/09/17 04:33:49;;;;;;;5.03;3.07;;;;;;;;;;5077975;28;20240;-70
2023/09/17 04:36:19;;;;;;;4.70;3.20;;;;;;;;;;5077417;28;20220;-70
2023/09/17 04:38:47;;;;;;;7.60;3.80;;;;;;;;;;5077442;28;20215;-70
2023/09/17 04:41:15;;;;;;;5.50;3.47;;;;;;;;;;5077481;28;20228;-70
2023/09/17 04:43:43;;;;;;;8.37;3.20;;;;;;;;;;5077708;28;20229;-70
2023/09/17 04:46:12;;;;;;;5.40;2.90;;;;;;;;;;5077580;28;20236;-70
2023/09/17 04:48:40;;;;;;;4.80;3.00;;;;;;;;;;5077701;28;20210;-68
2023/09/17 04:51:08;;;;;;;4.93;3.50;;;;;;;;;;5077172;28;20226;-69
2023/09/17 04:53:37;;;;;;;4.73;3.07;;;;;;;;;;5077627;28;20205;-69
2023/09/17 04:56:05;;;;;;;4.27;2.90;;;;;;;;;;5077689;28;20280;-68
2023/09/17 04:58:33;;;;;;;6.37;3.13;;;;;;;;;;5077696;28;20203;-69
2023/09/17 05:01:01;;;;;;;9.43;3.33;;;;;;;;;;5077238;28;20262;-69
2023/09/17 05:03:30;;;;;;;7.00;3.17;;;;;;;;;;5077629;28;20231;-69
2023/09/17 05:05:58;;;;;;;6.53;3.50;;;;;;;;;;5077135;28;20206;-70
2023/09/17 05:08:26;;;;;;;6.80;3.27;;;;;;;;;;5077493;28;20211;-70
2023/09/17 05:10:56;;;;;;;4.57;3.27;;;;;;;;;;5077421;28;20311;-69
2023/09/17 05:13:24;;;;;;;11.27;3.67;;;;;;;;;;5077288;28;20677;-69
2023/09/17 05:15:52;;;;;;;5.23;3.60;;;;;;;;;;5077389;28;20214;-69
2023/09/17 05:18:20;;;;;;;7.77;2.83;;;;;;;;;;5077397;28;20220;-69
2023/09/17 05:20:48;;;;;;;5.70;3.23;;;;;;;;;;5077120;28;20225;-69
2023/09/17 05:23:17;;;;;;;3.07;2.77;;;;;;;;;;5077307;28;20219;-68
2023/09/17 05:25:45;;;;;;;7.17;3.47;;;;;;;;;;5080147;28;20202;-69
2023/09/17 05:28:15;;;;;;;7.00;3.27;;;;;;;;;;5080878;28;20207;-69
2023/09/17 05:30:43;;;;;;;4.80;3.43;;;;;;;;;;5080690;28;20633;-69
2023/09/17 05:33:11;;;;;;;3.77;2.80;;;;;;;;;;5080803;28;20211;-69
2023/09/17 05:35:39;;;;;;;8.20;3.70;;;;;;;;;;5080389;28;20569;-70
2023/09/17 05:38:08;;;;;;;9.73;3.57;;;;;;;;;;5080587;28;20295;-71
2023/09/17 05:40:36;;;;;;;4.30;3.10;;;;;;;;;;5080692;28;20235;-70
2023/09/17 05:43:05;;;;;;;8.40;3.10;;;;;;;;;;5080637;28;20575;-69
2023/09/17 05:45:34;;;;;;;7.13;3.10;;;;;;;;;;5080520;28;20232;-69
2023/09/17 05:48:02;;;;;;;5.37;2.70;;;;;;;;;;5080429;28;20721;-70
2023/09/17 05:50:30;;;;;;;7.10;3.00;;;;;;;;;;5080420;28;20231;-69
2023/09/17 05:52:58;;;;;;;7.17;3.30;;;;;;;;;;5080260;28;20577;-70
2023/09/17 05:55:28;;;;;;;6.00;2.80;;;;;;;;;;5080454;28;20288;-70
2023/09/17 05:57:56;;;;;;;8.13;3.43;;;;;;;;;;5080587;28;20262;-70
2023/09/17 06:00:24;;;;;;;9.10;3.30;;;;;;;;;;5080414;28;20231;-70
2023/09/17 06:02:54;;;;;;;7.17;3.70;;;;;;;;;;5080311;28;20577;-69
2023/09/17 06:05:22;;;;;;;6.73;3.47;;;;;;;;;;5079890;28;20225;-69
2023/09/17 06:07:50;;;;;;;4.90;3.17;;;;;;;;;;5080079;28;20213;-69
2023/09/17 06:10:18;;;;;;;10.03;3.63;;;;;;;;;;5079935;28;20227;-69
2023/09/17 06:12:46;;;;;;;6.30;3.53;;;;;;;;;;5080036;28;20244;-70
2023/09/17 06:15:14;;;;;;;8.80;3.50;;;;;;;;;;5080229;28;20217;-68
2023/09/17 06:17:42;;;;;;;5.60;2.93;;;;;;;;;;5074196;28;20536;-68
2023/09/17 06:20:12;;;;;;;8.03;3.10;;;;;;;;;;5079963;28;20274;-69
2023/09/17 06:22:40;;;;;;;8.17;3.33;;;;;;;;;;5079825;28;20573;-69
2023/09/17 06:25:08;;;;;;;7.77;3.40;;;;;;;;;;5079630;28;20230;-69
2023/09/17 06:27:36;;;;;;;7.20;3.33;;;;;;;;;;5080119;28;20218;-69
2023/09/17 06:30:05;;;;;;;5.27;3.37;;;;;;;;;;5079923;28;20229;-69
2023/09/17 06:32:33;;;;;;;4.90;2.90;;;;;;;;;;5079981;28;20213;-69
2023/09/17 06:35:01;;;;;;;7.73;2.97;;;;;;;;;;5079585;28;20255;-69
2023/09/17 06:37:31;;;;;;;6.17;2.87;;;;;;;;;;5079000;28;20217;-69
2023/09/17 06:39:59;;;;;;;6.07;3.00;;;;;;;;;;5079211;28;20288;-69
2023/09/17 06:42:27;;;;;;;6.23;2.90;;;;;;;;;;5079554;28;20654;-69
2023/09/17 06:44:54;;;;;;;10.03;3.10;;;;;;;;;;5079488;28;20230;-70
2023/09/17 06:47:23;;;;;;;7.77;2.70;;;;;;;;;;5079412;28;20212;-69
2023/09/17 06:49:51;;;;;;;8.67;3.23;;;;;;;;;;5078959;28;20207;-69
2023/09/17 06:52:19;;;;;;;6.90;3.33;;;;;;;;;;5079683;28;20238;-69
2023/09/17 06:54:51;;;;;;;6.17;2.77;;;;;;;;;;5079381;28;20213;-71
2023/09/17 06:57:19;;;;;;;5.07;3.20;;;;;;;;;;5079113;28;20239;-71
2023/09/17 06:59:47;;;;;;;6.33;2.93;;;;;;;;;;5079020;28;20577;-70
2023/09/17 07:02:15;;;;;;;6.20;3.33;;;;;;;;;;5079137;28;20204;-71
2023/09/17 07:04:43;;;;;;;6.83;3.10;;;;;;;;;;5078941;28;20229;-71
2023/09/17 07:07:12;;;;;;;11.00;3.50;;;;;;;;;;5079226;28;20214;-71
2023/09/17 07:09:40;;;;;;;5.10;3.23;;;;;;;;;;5078770;28;20621;-71
2023/09/17 07:12:09;;;;;;;6.57;3.37;;;;;;;;;;5078801;28;20276;-71
2023/09/17 07:14:37;;;;;;;3.93;3.47;;;;;;;;;;5079069;28;20208;-71
2023/09/17 07:17:05;;;;;;;7.80;3.47;;;;;;;;;;5078611;28;20293;-70
2023/09/17 07:19:34;;;;;;;8.37;3.37;;;;;;;;;;5065618;28;20211;-71
2023/09/17 07:22:02;;;;;;;7.37;3.33;;;;;;;;;;5078664;28;20207;-70
2023/09/17 07:24:32;;;;;;;4.70;3.30;;;;;;;;;;5078700;28;20203;-70
2023/09/17 07:27:00;;;;;;;11.60;3.83;;;;;;;;;;5078820;28;20208;-70
2023/09/17 07:29:30;;;;;;;7.73;3.33;;;;;;;;;;5078642;28;20237;-71
2023/09/17 07:31:58;;;;;;;8.83;3.23;;;;;;;;;;5078668;28;20229;-71
2023/09/17 07:34:26;;;;;;;8.70;3.70;;;;;;;;;;5078588;28;20204;-71
2023/09/17 07:36:55;;;;;;;9.90;3.17;;;;;;;;;;5078337;28;20646;-71
2023/09/17 07:39:23;;;;;;;6.10;3.07;;;;;;;;;;5078292;28;20327;-70
2023/09/17 07:41:51;;;;;;;3.50;3.10;;;;;;;;;;5078158;28;20663;-71
2023/09/17 07:44:19;;;;;;;9.20;3.03;;;;;;;;;;5078277;28;20710;-71
2023/09/17 07:46:48;;;;;;;8.07;3.47;;;;;;;;;;5078331;28;20232;-70
2023/09/17 07:49:17;;;;;;;8.23;3.20;;;;;;;;;;5077890;28;20292;-69
2023/09/17 07:51:45;;;;;;;8.23;3.50;;;;;;;;;;5078052;28;20704;-70
2023/09/17 07:54:14;;;;;;;6.93;3.60;;;;;;;;;;5078217;28;20206;-70
2023/09/17 07:56:42;;;;;;;9.20;3.40;;;;;;;;;;5077815;28;20579;-70
2023/09/17 07:59:10;;;;;;;10.50;2.83;;;;;;;;;;5077981;28;20220;-70
2023/09/17 08:01:38;;;;;;;8.20;3.20;;;;;;;;;;5077926;28;20604;-70
2023/09/17 08:04:09;;;;;;;6.07;3.27;;;;;;;;;;5078105;28;20209;-70
2023/09/17 08:06:37;;;;;;;5.80;3.33;;;;;;;;;;5078053;28;20314;-70
2023/09/17 08:09:06;;;;;;;7.70;3.30;;;;;;;;;;5077782;28;20212;-71
2023/09/17 08:11:34;;;;;;;9.07;4.00;;;;;;;;;;5077960;28;20708;-71
2023/09/17 08:14:02;;;;;;;9.97;3.60;;;;;;;;;;5078012;28;20204;-71
2023/09/17 08:16:31;;;;;;;7.63;3.37;;;;;;;;;;5078012;28;20197;-71
2023/09/17 08:18:59;;;;;;;6.93;3.60;;;;;;;;;;5077833;28;20224;-71
2023/09/17 08:21:29;;;;;;;7.80;3.60;;;;;;;;;;5077481;28;20225;-71
2023/09/17 08:23:59;;;;;;;6.80;2.90;;;;;;;;;;5077592;28;20216;-71
2023/09/17 08:26:28;;;;;;;8.97;3.03;;;;;;;;;;5078022;28;20230;-71
2023/09/17 08:28:57;;;;;;;8.87;4.50;;;;;;;;;;5077663;28;20697;-70
2023/09/17 08:31:25;;;;;;;8.80;3.47;;;;;;;;;;5077793;28;20285;-70
2023/09/17 08:33:54;;;;;;;5.37;3.00;;;;;;;;;;5077667;28;20210;-71
2023/09/17 08:36:22;;;;;;;9.10;3.47;;;;;;;;;;5077595;28;20226;-70
2023/09/17 08:38:54;;;;;;;7.87;4.07;;;;;;;;;;5077649;28;20212;-71
2023/09/17 08:41:23;;;;;;;11.10;3.47;;;;;;;;;;5077348;28;20229;-69
2023/09/17 08:43:52;;;;;;;12.50;3.07;;;;;;;;;;5077489;28;20726;-69
2023/09/17 08:46:22;;;;;;;10.33;3.33;;;;;;;;;;5077651;28;20228;-71
2023/09/17 08:48:54;;;;;;;6.23;3.00;;;;;;;;;;5077780;28;20260;-71
2023/09/17 08:51:24;;;;;;;14.00;3.80;;;;;;;;;;5077372;28;20228;-71
2023/09/17 08:53:58;;;;;;;8.80;3.53;;;;;;;;;;5077423;28;20574;-71
2023/09/17 08:56:27;;;;;;;11.50;3.23;;;;;;;;;;5077271;28;20693;-70
2023/09/17 08:58:57;;;;;;;12.13;3.80;;;;;;;;;;5077613;28;20209;-71
2023/09/17 09:01:25;;;;;;;12.10;3.47;;;;;;;;;;5081590;28;20237;-71
2023/09/17 09:03:54;;;;;;;11.13;3.27;;;;;;;;;;5081385;28;20574;-70
2023/09/17 09:06:23;;;;;;;7.50;3.10;;;;;;;;;;5081270;28;20287;-70
2023/09/17 09:08:52;;;;;;;11.30;3.43;;;;;;;;;;5081391;28;20205;-69
2023/09/17 09:11:22;;;;;;;11.30;3.77;;;;;;;;;;5081204;28;20595;-71
2023/09/17 09:13:53;;;;;;;9.90;3.17;;;;;;;;;;5081109;28;20214;-71
2023/09/17 09:16:21;;;;;;;9.70;3.33;;;;;;;;;;5081341;28;20204;-71
2023/09/17 09:18:50;;;;;;;8.70;3.33;;;;;;;;;;5076706;28;20292;-71
2023/09/17 09:21:18;;;;;;;15.47;3.27;;;;;;;;;;5080993;28;20234;-71
2023/09/17 09:23:46;;;;;;;12.10;3.43;;;;;;;;;;5082819;28;20209;-70
2023/09/17 09:26:15;;;;;;;12.60;3.23;;;;;;;;;;5082693;28;20709;-71
2023/09/17 09:28:45;;;;;;;10.37;3.20;;;;;;;;;;5082931;28;20221;-70
2023/09/17 09:31:13;;;;;;;12.53;3.33;;;;;;;;;;5082794;28;20291;-70
2023/09/17 09:33:42;;;;;;;15.27;3.33;;;;;;;;;;5082422;28;20205;-70
2023/09/17 09:36:11;;;;;;;12.37;3.40;;;;;;;;;;5082107;28;20540;-70
2023/09/17 09:38:39;;;;;;;13.13;3.67;;;;;;;;;;5081282;28;20214;-71
2023/09/17 09:41:07;;;;;;;15.47;3.60;;;;;;;;;;5081182;28;20221;-70
2023/09/17 09:43:37;;;;;;;11.60;3.30;;;;;;;;;;5080999;28;20207;-71
2023/09/17 09:46:07;;;;;;;11.03;3.90;;;;;;;;;;5080715;28;20233;-71
2023/09/17 09:48:37;;;;;;;10.53;3.40;;;;;;;;;;5080707;28;20288;-70
2023/09/17 09:51:06;;;;;;;9.67;3.27;;;;;;;;;;5080133;28;20229;-71
2023/09/17 09:53:34;;;;;;;10.88;3.13;;;;;;;;;;5067154;28;20212;-70
2023/09/17 09:56:03;;;;;;;17.17;3.73;;;;;;;;;;5080151;28;20245;-70
2023/09/17 09:58:31;;;;;;;21.60;3.83;;;;;;;;;;5080602;28;20292;-72
2023/09/17 10:01:02;;;;;;;10.73;4.10;;;;;;;;;;5080129;28;20266;-71
2023/09/17 10:03:32;;;;;;;26.88;3.95;;;;;;;;;;5080506;28;20222;-70
2023/09/17 10:06:06;;;;;;;14.40;3.50;;;;;;;;;;5079962;28;20233;-70
2023/09/17 10:08:35;;;;;;;12.98;3.25;;;;;;;;;;5080108;28;20203;-70
2023/09/17 10:11:05;;;;;;;12.30;3.22;;;;;;;;;;5078652;28;20234;-71
2023/09/17 10:13:33;;;;;;;11.52;2.70;;;;;;;;;;5080117;28;20221;-70
2023/09/17 10:16:02;;;;;;;13.52;3.70;;;;;;;;;;5079924;28;20271;-70
2023/09/17 10:18:35;;;;;;;14.52;3.70;;;;;;;;;;5080279;28;20252;-71
2023/09/17 10:21:03;;;;;;;13.30;3.35;;;;;;;;;;5079572;28;20235;-71
2023/09/17 10:23:32;;;;;;;14.07;3.63;;;;;;;;;;5080056;28;20220;-71
2023/09/17 10:26:02;;;;;;;16.52;3.63;;;;;;;;;;5079821;28;20695;-71
2023/09/17 10:28:32;;;;;;;21.50;4.10;;;;;;;;;;5079937;28;20209;-71
2023/09/17 10:31:01;;;;;;;15.70;3.50;;;;;;;;;;5079654;28;20622;-71
2023/09/17 10:33:31;;;;;;;14.18;3.17;;;;;;;;;;5079699;28;20608;-71
2023/09/17 10:36:02;;;;;;;16.25;3.90;;;;;;;;;;5079409;28;20217;-71
2023/09/17 10:38:31;;;;;;;17.38;4.38;;;;;;;;;;5079612;28;20206;-71
2023/09/17 10:41:00;;;;;;;26.83;4.95;;;;;;;;;;5079723;28;20320;-71
2023/09/17 10:43:29;;;;;;;16.33;4.63;;;;;;;;;;5079646;28;20210;-71
2023/09/17 10:45:57;;;;;;;14.45;3.33;;;;;;;;;;5079412;28;20212;-71
2023/09/17 10:48:27;;;;;;;15.60;3.83;;;;;;;;;;5079262;28;20353;-71
2023/09/17 10:50:55;;;;;;;18.83;4.45;;;;;;;;;;5079300;28;20233;-71
2023/09/17 10:53:26;;;;;;;11.45;3.63;;;;;;;;;;5079108;28;20211;-71
2023/09/17 10:55:57;;;;;;;23.63;3.80;;;;;;;;;;5079312;28;20239;-71
2023/09/17 10:58:27;;;;;;;16.85;3.70;;;;;;;;;;5079466;28;20202;-71
2023/09/17 11:00:59;;;;;;;25.35;3.58;;;;;;;;;;5079187;28;20226;-71
2023/09/17 11:03:27;;;;;;;17.75;3.60;;;;;;;;;;5079388;28;20570;-71
2023/09/17 11:05:57;;;;;;;15.90;4.65;;;;;;;;;;5079052;28;20206;-71
2023/09/17 11:08:27;;;;;;;17.77;4.13;;;;;;;;;;5079103;28;20589;-71
2023/09/17 11:10:55;;;;;;;18.55;4.97;;;;;;;;;;5079065;28;20232;-71
2023/09/17 11:13:23;;;;;;;27.90;4.50;;;;;;;;;;5078956;28;20205;-71
2023/09/17 11:15:54;;;;;;;22.45;4.10;;;;;;;;;;5078874;28;20206;-71
2023/09/17 11:18:22;;;;;;;22.85;4.50;;;;;;;;;;5078989;28;20206;-71
2023/09/17 11:21:00;;;;;;;21.75;4.00;;;;;;;;;;5078328;28;20783;-71
2023/09/17 11:23:42;;;;;;;20.17;5.10;;;;;;;;;;5078456;28;20296;-71
2023/09/17 11:26:13;;;;;;;23.17;5.07;;;;;;;;;;5078732;28;20215;-71
2023/09/17 11:28:41;;;;;;;19.02;4.63;;;;;;;;;;5078472;28;20718;-72
2023/09/17 11:31:12;;;;;;;21.05;3.58;;;;;;;;;;5078760;28;20234;-71
2023/09/17 11:33:42;;;;;;;27.77;3.83;;;;;;;;;;5078810;28;20251;-71
2023/09/17 11:36:11;;;;;;;28.27;4.45;;;;;;;;;;5078498;28;20989;-71
2023/09/17 11:38:45;;;;;;;21.35;4.22;;;;;;;;;;5078348;28;20692;-72
2023/09/17 11:41:14;;;;;;;28.42;4.88;;;;;;;;;;5078879;28;20301;-71
2023/09/17 11:43:44;;;;;;;26.77;4.50;;;;;;;;;;5078640;28;20202;-71
2023/09/17 11:46:13;;;;;;;21.80;4.63;;;;;;;;;;5078530;28;20209;-71
2023/09/17 11:48:42;;;;;;;30.52;4.80;;;;;;;;;;5078478;28;20348;-71
2023/09/17 11:51:23;;;;;;;15.00;3.60;;;;;;;;;;5077792;28;20586;-71
2023/09/17 11:54:00;;;;;;;21.63;4.13;;;;;;;;;;5078563;28;20216;-71
2023/09/17 11:56:29;;;;;;;17.38;3.40;;;;;;;;;;5077911;28;20670;-71
2023/09/17 11:58:58;;;;;;;21.67;4.25;;;;;;;;;;5078290;28;20201;-71
2023/09/17 12:01:28;;;;;;;19.85;4.10;;;;;;;;;;5078214;28;20313;-71
2023/09/17 12:03:57;;;;;;;17.00;4.57;;;;;;;;;;5078321;28;20237;-71
2023/09/17 12:06:26;;;;;;;16.70;4.35;;;;;;;;;;5078200;28;20210;-71
2023/09/17 12:08:56;;;;;;;19.73;3.88;;;;;;;;;;5078016;28;20222;-71
2023/09/17 12:11:26;;;;;;;19.92;3.97;;;;;;;;;;5078146;28;20226;-71
2023/09/17 12:13:56;;;;;;;17.92;4.05;;;;;;;;;;5077743;28;20669;-71
2023/09/17 12:16:25;;;;;;;18.75;3.58;;;;;;;;;;5078102;28;20210;-72
2023/09/17 12:18:53;;;;;;;21.23;4.38;;;;;;;;;;5077529;28;20220;-71
2023/09/17 12:21:41;;;;;;;23.90;3.50;;;;;;;;;;5077663;28;21042;-71
2023/09/17 12:24:18;;;;;;;24.58;4.88;;;;;;;;;;5077908;28;20205;-71
2023/09/17 12:26:56;;;;;;;23.40;3.72;;;;;;;;;;5077771;28;20649;-72
2023/09/17 12:29:24;;;;;;;18.65;3.47;;;;;;;;;;5077980;28;20253;-70
2023/09/17 12:31:52;;;;;;;15.65;3.80;;;;;;;;;;5077626;28;20226;-70
2023/09/17 12:34:21;;;;;;;14.00;3.42;;;;;;;;;;5076670;28;20208;-72
2023/09/17 12:36:49;;;;;;;16.73;3.58;;;;;;;;;;5077849;28;20221;-72
2023/09/17 12:39:17;;;;;;;26.20;4.75;;;;;;;;;;5077540;28;20216;-72
2023/09/17 12:41:45;;;;;;;10.63;3.10;;;;;;;;;;5077791;28;20228;-70
2023/09/17 12:44:15;;;;;;;13.45;3.17;;;;;;;;;;5077606;28;20544;-70
2023/09/17 12:46:43;;;;;;;14.43;3.55;;;;;;;;;;5077737;28;20210;-72
2023/09/17 12:49:11;;;;;;;14.13;4.63;;;;;;;;;;5077246;28;20276;-72
2023/09/17 12:51:39;;;;;;;18.88;3.97;;;;;;;;;;5077329;28;20237;-72
2023/09/17 12:54:07;;;;;;;17.33;3.78;;;;;;;;;;5077416;28;20684;-71
2023/09/17 12:56:38;;;;;;;13.32;3.55;;;;;;;;;;5077621;28;20241;-71
2023/09/17 12:59:06;;;;;;;20.90;3.70;;;;;;;;;;5077886;28;20205;-71
2023/09/17 13:01:51;;;;;;;13.27;2.92;;;;;;;;;;5077671;28;20233;-71
2023/09/17 13:04:32;;;;;;;15.20;4.13;;;;;;;;;;5077354;28;20210;-71
2023/09/17 13:07:00;;;;;;;16.83;3.28;;;;;;;;;;5077656;28;20292;-72
2023/09/17 13:09:29;;;;;;;17.33;3.53;;;;;;;;;;5076923;28;20693;-72
2023/09/17 13:11:57;;;;;;;19.65;4.03;;;;;;;;;;5077268;28;20312;-72
2023/09/17 13:14:25;;;;;;;18.00;3.25;;;;;;;;;;5077467;28;20206;-70
2023/09/17 13:16:54;;;;;;;14.82;3.42;;;;;;;;;;5077203;28;20662;-70
2023/09/17 13:19:23;;;;;;;15.77;3.28;;;;;;;;;;5077143;28;20201;-70
2023/09/17 13:21:51;;;;;;;13.93;3.45;;;;;;;;;;5077287;28;20590;-70
2023/09/17 13:24:19;;;;;;;13.40;3.40;;;;;;;;;;5077420;28;20201;-70
2023/09/17 13:26:47;;;;;;;16.58;3.40;;;;;;;;;;5077498;28;20217;-71
2023/09/17 13:29:15;;;;;;;11.68;2.60;;;;;;;;;;5077377;28;20329;-71
2023/09/17 13:31:43;;;;;;;12.98;2.97;;;;;;;;;;5077427;28;20230;-71
2023/09/17 13:34:13;;;;;;;15.13;2.92;;;;;;;;;;5076962;28;20210;-71
2023/09/17 13:36:41;;;;;;;12.02;3.33;;;;;;;;;;5077401;28;20217;-71
2023/09/17 13:39:12;;;;;;;17.92;3.10;;;;;;;;;;5077039;28;20220;-70
2023/09/17 13:41:40;;;;;;;11.30;2.90;;;;;;;;;;5076860;28;20590;-70
2023/09/17 13:44:09;;;;;;;12.77;2.90;;;;;;;;;;5077323;28;20269;-71
2023/09/17 13:46:38;;;;;;;24.70;3.38;;;;;;;;;;5079481;28;20613;-70
2023/09/17 13:49:07;;;;;;;13.02;3.30;;;;;;;;;;5080312;28;20236;-70
2023/09/17 13:51:36;;;;;;;11.35;2.55;;;;;;;;;;5080380;28;20704;-71
2023/09/17 13:54:05;;;;;;;9.98;3.00;;;;;;;;;;5080648;28;20213;-71
2023/09/17 13:56:33;;;;;;;11.43;3.13;;;;;;;;;;5080351;28;20248;-71
2023/09/17 13:59:01;;;;;;;12.15;2.83;;;;;;;;;;5080490;28;20214;-70
2023/09/17 14:01:29;;;;;;;13.73;2.70;;;;;;;;;;5080689;28;20230;-70
2023/09/17 14:03:57;;;;;;;8.25;2.50;;;;;;;;;;5080885;28;20210;-71
2023/09/17 14:06:25;;;;;;;15.15;2.67;;;;;;;;;;5080167;28;20209;-70
2023/09/17 14:08:54;;;;;;;9.32;3.00;;;;;;;;;;5080359;28;20226;-72
2023/09/17 14:11:25;;;;;;;9.55;2.45;;;;;;;;;;5080430;28;20321;-70
2023/09/17 14:13:54;;;;;;;8.82;2.45;;;;;;;;;;5080311;28;20236;-72
2023/09/17 14:16:22;;;;;;;12.85;2.80;;;;;;;;;;5080161;28;20210;-70
2023/09/17 14:18:50;;;;;;;18.08;2.97;;;;;;;;;;5075052;28;20205;-71
2023/09/17 14:21:18;;;;;;;14.32;2.67;;;;;;;;;;5079710;28;20586;-71
2023/09/17 14:23:46;;;;;;;11.80;3.35;;;;;;;;;;5079972;28;20209;-71
2023/09/17 14:26:16;;;;;;;16.38;3.05;;;;;;;;;;5079965;28;20210;-71
2023/09/17 14:28:44;;;;;;;13.20;3.03;;;;;;;;;;5079672;28;20313;-71
2023/09/17 14:31:12;;;;;;;14.40;3.53;;;;;;;;;;5079627;28;20289;-70
2023/09/17 14:33:41;;;;;;;12.20;2.88;;;;;;;;;;5080006;28;20210;-71
2023/09/17 14:36:09;;;;;;;11.20;2.78;;;;;;;;;;5079817;28;20206;-71
2023/09/17 14:38:37;;;;;;;15.90;3.78;;;;;;;;;;5079437;28;20205;-71
2023/09/17 14:41:05;;;;;;;8.57;2.60;;;;;;;;;;5079656;28;20378;-70
2023/09/17 14:43:34;;;;;;;19.75;3.72;;;;;;;;;;5079527;28;20261;-71
2023/09/17 14:46:02;;;;;;;9.88;2.60;;;;;;;;;;5079615;28;20206;-72
2023/09/17 14:48:30;;;;;;;15.93;2.63;;;;;;;;;;5079459;28;20210;-71